createdAt,value
2022-08-17T00:00:51.766Z,22.30
2022-08-17T00:03:29.238Z,22.30
2022-08-17T00:06:02.702Z,22.30
2022-08-17T00:08:39.969Z,22.20
2022-08-17T00:11:10.572Z,22.30
2022-08-17T00:13:51.873Z,22.30
2022-08-17T00:16:55.530Z,22.20
2022-08-17T00:19:31.232Z,22.20
2022-08-17T00:22:35.181Z,22.20
2022-08-17T00:24:55.893Z,22.10
2022-08-17T00:27:24.182Z,22.10
2022-08-17T00:30:00.913Z,22.10
2022-08-17T00:33:11.986Z,22.10
2022-08-17T00:35:29.842Z,22.10
2022-08-17T00:38:05.012Z,22.10
2022-08-17T00:40:40.828Z,22.10
2022-08-17T00:43:22.925Z,22.10
2022-08-17T00:45:52.711Z,22.10
2022-08-17T00:48:29.447Z,22.10
2022-08-17T00:51:10.277Z,22.00
2022-08-17T00:53:48.916Z,22.00
2022-08-17T00:56:25.160Z,22.00
2022-08-17T00:59:02.038Z,21.90
2022-08-17T01:01:33.731Z,21.90
2022-08-17T01:04:10.266Z,21.90
2022-08-17T01:06:39.394Z,21.90
2022-08-17T01:09:15.274Z,21.90
2022-08-17T01:11:44.402Z,21.90
2022-08-17T01:14:25.915Z,21.80
2022-08-17T01:16:57.073Z,21.80
2022-08-17T01:19:34.914Z,21.80
2022-08-17T01:22:08.970Z,21.80
2022-08-17T01:24:47.019Z,21.70
2022-08-17T01:27:18.541Z,21.70
2022-08-17T01:29:57.964Z,21.60
2022-08-17T01:32:26.770Z,21.60
2022-08-17T01:35:01.934Z,21.60
2022-08-17T01:37:35.599Z,21.60
2022-08-17T01:40:16.953Z,21.50
2022-08-17T01:42:49.934Z,21.50
2022-08-17T01:45:29.947Z,21.50
2022-08-17T01:47:58.298Z,21.50
2022-08-17T01:50:35.966Z,21.50
2022-08-17T01:53:07.427Z,21.50
2022-08-17T01:55:48.965Z,21.50
2022-08-17T01:58:17.898Z,21.50
2022-08-17T02:01:00.159Z,21.50
2022-08-17T02:03:30.312Z,21.50
2022-08-17T02:06:05.247Z,21.50
2022-08-17T02:08:37.142Z,21.50
2022-08-17T02:11:17.976Z,21.50
2022-08-17T02:14:01.029Z,21.50
2022-08-17T02:16:46.912Z,21.50
2022-08-17T02:19:18.172Z,21.60
2022-08-17T02:21:55.014Z,21.50
2022-08-17T02:25:00.983Z,21.50
2022-08-17T02:27:27.013Z,21.50
2022-08-17T02:29:55.534Z,21.50
2022-08-17T02:32:33.009Z,21.50
2022-08-17T02:35:01.997Z,21.40
2022-08-17T02:37:38.094Z,21.40
2022-08-17T02:40:07.967Z,21.40
2022-08-17T02:42:47.127Z,21.40
2022-08-17T02:45:17.418Z,21.30
2022-08-17T02:47:52.044Z,21.30
2022-08-17T02:50:22.652Z,21.30
2022-08-17T02:53:02.599Z,21.30
2022-08-17T02:55:33.059Z,21.30
2022-08-17T02:58:10.116Z,21.30
2022-08-17T03:00:42.657Z,21.30
2022-08-17T03:03:20.015Z,21.30
2022-08-17T03:05:53.146Z,21.20
2022-08-17T03:08:30.386Z,21.20
2022-08-17T03:10:58.773Z,21.20
2022-08-17T03:13:35.024Z,21.20
2022-08-17T03:16:10.471Z,21.10
2022-08-17T03:18:45.070Z,21.10
2022-08-17T03:21:13.580Z,21.10
2022-08-17T03:23:49.056Z,21.00
2022-08-17T03:26:22.690Z,21.10
2022-08-17T03:28:58.992Z,21.10
2022-08-17T03:31:27.258Z,21.00
2022-08-17T03:34:03.066Z,21.00
2022-08-17T03:36:31.356Z,21.10
2022-08-17T03:39:11.406Z,21.00
2022-08-17T03:41:40.698Z,21.10
2022-08-17T03:44:17.055Z,21.10
2022-08-17T03:47:02.706Z,21.10
2022-08-17T03:49:55.207Z,21.20
2022-08-17T03:52:40.781Z,21.10
2022-08-17T03:55:39.182Z,21.10
2022-08-17T03:58:07.490Z,21.20
2022-08-17T04:00:46.084Z,21.10
2022-08-17T04:03:15.285Z,21.20
2022-08-17T04:05:51.218Z,21.20
2022-08-17T04:08:19.414Z,21.20
2022-08-17T04:10:54.118Z,21.20
2022-08-17T04:13:24.239Z,21.10
2022-08-17T04:16:08.106Z,21.10
2022-08-17T04:18:43.310Z,21.10
2022-08-17T04:21:18.090Z,21.00
2022-08-17T04:23:46.430Z,21.00
2022-08-17T04:26:52.780Z,21.00
2022-08-17T04:29:10.515Z,20.90
2022-08-17T04:31:46.072Z,20.90
2022-08-17T04:34:14.388Z,20.90
2022-08-17T04:36:55.129Z,20.80
2022-08-17T04:39:25.092Z,20.80
2022-08-17T04:42:14.061Z,20.80
2022-08-17T04:44:42.202Z,20.80
2022-08-17T04:47:18.140Z,20.70
2022-08-17T04:49:46.568Z,20.80
2022-08-17T04:52:29.744Z,20.70
2022-08-17T04:55:11.684Z,20.60
2022-08-17T04:57:46.140Z,20.70
2022-08-17T05:00:14.975Z,20.70
2022-08-17T05:02:55.402Z,20.70
2022-08-17T05:05:26.732Z,20.70
2022-08-17T05:08:03.162Z,20.70
2022-08-17T05:10:35.910Z,20.70
2022-08-17T05:13:15.181Z,20.70
2022-08-17T05:15:55.306Z,20.70
2022-08-17T05:18:32.268Z,20.70
2022-08-17T05:21:00.826Z,20.70
2022-08-17T05:23:42.844Z,20.70
2022-08-17T05:26:25.503Z,20.80
2022-08-17T05:29:03.205Z,20.80
2022-08-17T05:31:31.809Z,20.80
2022-08-17T05:34:08.291Z,20.70
2022-08-17T05:36:44.157Z,20.70
2022-08-17T05:39:21.304Z,20.70
2022-08-17T05:41:49.605Z,20.70
2022-08-17T05:44:25.533Z,20.70
2022-08-17T05:46:54.878Z,20.70
2022-08-17T05:49:35.350Z,20.70
2022-08-17T05:52:24.031Z,20.70
2022-08-17T05:55:13.272Z,20.70
2022-08-17T05:57:55.959Z,20.70
2022-08-17T06:00:34.294Z,20.70
2022-08-17T06:03:43.236Z,20.70
2022-08-17T06:06:25.206Z,20.70
2022-08-17T06:09:25.755Z,20.80
2022-08-17T06:12:04.294Z,20.80
2022-08-17T06:14:57.183Z,20.80
2022-08-17T06:17:33.652Z,20.80
2022-08-17T06:20:13.227Z,20.90
2022-08-17T06:22:48.559Z,20.90
2022-08-17T06:25:26.209Z,21.00
2022-08-17T06:28:09.451Z,21.00
2022-08-17T06:30:59.809Z,21.10
2022-08-17T06:33:35.362Z,21.10
2022-08-17T06:36:21.354Z,21.10
2022-08-17T06:39:00.857Z,21.10
2022-08-17T06:41:49.370Z,21.10
2022-08-17T06:44:43.421Z,21.20
2022-08-17T06:47:28.701Z,21.10
2022-08-17T06:50:07.886Z,21.10
2022-08-17T06:52:48.433Z,21.00
2022-08-17T06:55:21.914Z,21.00
2022-08-17T06:58:01.265Z,21.10
2022-08-17T07:00:40.786Z,21.00
2022-08-17T07:03:23.414Z,21.00
2022-08-17T07:05:57.171Z,21.00
2022-08-17T07:08:40.229Z,21.10
2022-08-17T07:11:14.152Z,21.00
2022-08-17T07:13:56.321Z,20.90
2022-08-17T07:16:39.695Z,20.80
2022-08-17T07:19:15.215Z,20.90
2022-08-17T07:21:55.104Z,20.80
2022-08-17T07:24:42.422Z,20.80
2022-08-17T07:27:15.968Z,20.80
2022-08-17T07:29:56.391Z,20.70
2022-08-17T07:32:28.095Z,20.70
2022-08-17T07:35:22.286Z,20.80
2022-08-17T07:38:03.817Z,20.80
2022-08-17T07:40:42.514Z,20.70
2022-08-17T07:43:23.590Z,20.80
2022-08-17T07:46:39.321Z,20.80
2022-08-17T07:49:25.832Z,20.80
2022-08-17T07:52:24.000Z,20.70
2022-08-17T07:54:56.665Z,20.80
2022-08-17T07:57:40.423Z,20.80
2022-08-17T08:00:32.442Z,20.70
2022-08-17T08:03:21.337Z,20.60
2022-08-17T08:05:56.163Z,20.70
2022-08-17T08:08:35.332Z,20.60
2022-08-17T08:11:08.555Z,20.60
2022-08-17T08:13:49.345Z,20.60
2022-08-17T08:16:41.584Z,20.50
2022-08-17T08:19:21.146Z,20.50
2022-08-17T08:21:56.454Z,20.50
2022-08-17T08:24:48.312Z,20.30
2022-08-17T08:27:27.922Z,20.20
2022-08-17T08:30:11.472Z,20.00
2022-08-17T08:33:04.278Z,19.90
2022-08-17T08:35:41.884Z,19.70
2022-08-17T08:38:20.517Z,19.70
2022-08-17T08:41:16.409Z,19.70
2022-08-17T08:43:56.022Z,19.60
2022-08-17T08:46:38.314Z,19.60
2022-08-17T08:50:03.544Z,19.60
2022-08-17T08:53:01.381Z,19.50
2022-08-17T08:55:45.104Z,19.50
2022-08-17T08:58:31.679Z,19.60
2022-08-17T09:01:17.639Z,19.60
2022-08-17T09:04:24.015Z,19.50
2022-08-17T09:07:04.483Z,19.30
2022-08-17T09:09:57.329Z,19.30
2022-08-17T09:12:35.632Z,19.40
2022-08-17T09:15:18.519Z,19.40
2022-08-17T09:18:59.347Z,19.50
2022-08-17T09:21:03.446Z,19.40
2022-08-17T09:23:34.892Z,19.00
2022-08-17T09:26:21.357Z,18.90
2022-08-17T09:28:52.887Z,18.90
2022-08-17T09:31:33.500Z,19.00
2022-08-17T09:34:06.986Z,18.80
2022-08-17T09:36:52.419Z,18.50
2022-08-17T09:39:27.861Z,18.20
2022-08-17T09:42:13.416Z,18.20
2022-08-17T09:44:45.610Z,18.30
2022-08-17T09:47:38.537Z,18.40
2022-08-17T09:50:13.660Z,18.40
2022-08-17T09:52:50.454Z,18.40
2022-08-17T09:55:18.879Z,18.40
2022-08-17T09:58:04.764Z,18.40
2022-08-17T10:00:37.117Z,18.40
2022-08-17T10:03:36.672Z,18.40
2022-08-17T10:06:13.555Z,18.40
2022-08-17T10:08:56.591Z,18.50
2022-08-17T10:11:48.335Z,18.60
2022-08-17T10:14:37.457Z,18.60
2022-08-17T10:17:29.661Z,18.80
2022-08-17T10:20:11.562Z,18.90
2022-08-17T10:23:02.089Z,19.00
2022-08-17T10:25:55.730Z,19.20
2022-08-17T10:28:30.635Z,19.20
2022-08-17T10:31:35.742Z,19.20
2022-08-17T10:34:36.201Z,19.20
2022-08-17T10:37:36.466Z,19.20
2022-08-17T10:40:34.190Z,19.30
2022-08-17T10:43:23.416Z,19.40
2022-08-17T10:46:21.534Z,19.50
2022-08-17T10:49:29.616Z,19.60
2022-08-17T10:52:00.115Z,19.60
2022-08-17T10:54:58.390Z,19.70
2022-08-17T10:57:41.946Z,19.60
2022-08-17T11:00:27.404Z,19.60
2022-08-17T11:02:57.547Z,19.50
2022-08-17T11:06:11.496Z,19.50
2022-08-17T11:09:19.530Z,19.50
2022-08-17T11:12:09.861Z,19.50
2022-08-17T11:14:58.596Z,19.50
2022-08-17T11:17:52.152Z,19.50
2022-08-17T11:21:01.569Z,19.40
2022-08-17T11:24:03.085Z,19.40
2022-08-17T11:26:41.752Z,19.50
2022-08-17T11:29:25.372Z,19.60
2022-08-17T11:32:11.540Z,19.60
2022-08-17T11:34:41.892Z,19.50
2022-08-17T11:37:36.624Z,19.50
2022-08-17T11:40:37.609Z,19.50
2022-08-17T11:43:39.507Z,19.50
2022-08-17T11:46:51.014Z,19.50
2022-08-17T11:50:05.872Z,19.60
2022-08-17T11:52:40.386Z,19.50
2022-08-17T11:55:34.972Z,19.50
2022-08-17T11:58:07.921Z,19.50
2022-08-17T12:01:06.144Z,19.50
2022-08-17T12:03:55.853Z,19.60
2022-08-17T12:06:51.547Z,19.70
2022-08-17T12:09:25.112Z,19.70
2022-08-17T12:12:12.841Z,19.70
2022-08-17T12:15:10.639Z,19.80
2022-08-17T12:17:54.287Z,19.80
2022-08-17T12:20:28.000Z,20.00
2022-08-17T12:23:12.564Z,20.10
2022-08-17T12:25:46.158Z,20.30
2022-08-17T12:28:29.742Z,20.40
2022-08-17T12:31:03.580Z,20.50
2022-08-17T12:33:38.640Z,20.70
2022-08-17T12:36:09.794Z,20.80
2022-08-17T12:38:48.772Z,21.10
2022-08-17T12:41:31.417Z,21.30
2022-08-17T12:44:09.737Z,21.40
2022-08-17T12:46:51.852Z,21.60
2022-08-17T12:49:34.593Z,21.60
2022-08-17T12:52:08.804Z,21.70
2022-08-17T12:55:00.556Z,21.90
2022-08-17T12:57:33.964Z,22.10
2022-08-17T13:00:16.652Z,22.30
2022-08-17T13:02:50.483Z,22.40
2022-08-17T13:05:31.727Z,22.60
2022-08-17T13:08:01.490Z,22.90
2022-08-17T13:10:38.636Z,23.00
2022-08-17T13:13:24.057Z,23.10
2022-08-17T13:16:07.639Z,23.00
2022-08-17T13:18:49.238Z,22.90
2022-08-17T13:21:34.935Z,23.00
2022-08-17T13:24:08.197Z,23.10
2022-08-17T13:26:46.778Z,23.00
2022-08-17T13:29:27.499Z,22.90
2022-08-17T13:32:20.847Z,22.70
2022-08-17T13:35:12.502Z,22.80
2022-08-17T13:37:48.779Z,23.00
2022-08-17T13:40:43.169Z,23.40
2022-08-17T13:43:18.601Z,23.60
2022-08-17T13:45:53.325Z,23.90
2022-08-17T13:48:32.747Z,24.20
2022-08-17T13:51:23.143Z,24.30
2022-08-17T13:54:35.775Z,24.40
2022-08-17T13:57:06.189Z,24.60
2022-08-17T13:59:55.915Z,24.50
2022-08-17T14:02:26.020Z,24.40
2022-08-17T14:05:06.375Z,24.50
2022-08-17T14:07:39.915Z,24.70
2022-08-17T14:10:19.815Z,25.20
2022-08-17T14:12:49.562Z,25.40
2022-08-17T14:15:54.868Z,25.40
2022-08-17T14:18:50.526Z,25.60
2022-08-17T14:21:17.697Z,25.70
2022-08-17T14:23:54.328Z,25.30
2022-08-17T14:26:29.710Z,24.70
2022-08-17T14:28:57.986Z,24.40
2022-08-17T14:31:37.601Z,24.40
2022-08-17T14:34:06.655Z,24.30
2022-08-17T14:36:41.719Z,24.10
2022-08-17T14:39:19.394Z,24.10
2022-08-17T14:41:54.824Z,24.00
2022-08-17T14:44:23.679Z,23.80
2022-08-17T14:46:58.709Z,23.90
2022-08-17T14:49:28.103Z,24.00
2022-08-17T14:52:03.077Z,24.00
2022-08-17T14:54:34.057Z,23.90
2022-08-17T14:57:26.063Z,23.90
2022-08-17T14:59:59.274Z,24.00
2022-08-17T15:02:36.093Z,23.90
2022-08-17T15:05:06.618Z,23.90
2022-08-17T15:07:41.718Z,23.80
2022-08-17T15:10:12.743Z,23.70
2022-08-17T15:12:47.730Z,23.70
2022-08-17T15:15:18.475Z,23.80
2022-08-17T15:18:00.215Z,23.80
2022-08-17T15:20:30.401Z,23.70
2022-08-17T15:23:05.727Z,23.60
2022-08-17T15:25:35.262Z,23.60
2022-08-17T15:28:09.846Z,23.60
2022-08-17T15:30:38.361Z,23.50
2022-08-17T15:33:12.853Z,23.40
2022-08-17T15:35:44.959Z,23.30
2022-08-17T15:38:20.753Z,23.20
2022-08-17T15:40:52.597Z,23.20
2022-08-17T15:43:30.074Z,23.10
2022-08-17T15:46:00.939Z,23.10
2022-08-17T15:48:48.121Z,23.00
2022-08-17T15:51:19.074Z,23.00
2022-08-17T15:53:57.101Z,23.10
2022-08-17T15:56:28.982Z,23.10
2022-08-17T15:59:03.876Z,23.10
2022-08-17T16:02:24.775Z,23.00
2022-08-17T16:04:30.639Z,23.10
2022-08-17T16:07:06.942Z,22.90
2022-08-17T16:09:35.470Z,22.90
2022-08-17T16:12:21.761Z,22.80
2022-08-17T16:14:52.154Z,22.80
2022-08-17T16:17:40.775Z,22.80
2022-08-17T16:20:20.097Z,22.80
2022-08-17T16:22:56.799Z,22.80
2022-08-17T16:25:51.913Z,22.70
2022-08-17T16:28:30.908Z,22.70
2022-08-17T16:31:08.226Z,22.70
2022-08-17T16:34:01.048Z,22.70
2022-08-17T16:36:34.565Z,22.70
2022-08-17T16:39:09.793Z,22.60
2022-08-17T16:41:47.314Z,22.60
2022-08-17T16:44:25.876Z,22.60
2022-08-17T16:46:54.587Z,22.60
2022-08-17T16:49:37.381Z,22.80
2022-08-17T16:52:10.672Z,22.70
2022-08-17T16:54:50.022Z,22.60
2022-08-17T16:57:19.967Z,22.70
2022-08-17T16:59:57.854Z,22.80
2022-08-17T17:02:28.671Z,22.80
2022-08-17T17:05:10.835Z,22.90
2022-08-17T17:07:57.546Z,22.80
2022-08-17T17:10:38.861Z,22.80
2022-08-17T17:13:12.600Z,22.80
2022-08-17T17:15:58.005Z,22.70
2022-08-17T17:18:41.670Z,22.60
2022-08-17T17:21:21.884Z,22.70
2022-08-17T17:23:56.617Z,22.70
2022-08-17T17:26:45.047Z,22.70
2022-08-17T17:29:28.926Z,22.60
2022-08-17T17:32:28.861Z,22.70
2022-08-17T17:35:05.096Z,22.70
2022-08-17T17:37:43.027Z,22.60
2022-08-17T17:40:19.088Z,22.50
2022-08-17T17:42:53.891Z,22.50
2022-08-17T17:45:25.973Z,22.60
2022-08-17T17:48:02.894Z,22.60
2022-08-17T17:50:37.995Z,22.50
2022-08-17T17:53:17.983Z,22.50
2022-08-17T17:56:01.314Z,22.50
2022-08-17T17:58:46.919Z,22.40
2022-08-17T18:01:26.738Z,22.20
2022-08-17T18:04:20.740Z,22.20
2022-08-17T18:06:59.397Z,22.20
2022-08-17T18:09:53.727Z,22.10
2022-08-17T18:12:37.456Z,22.10
2022-08-17T18:15:27.915Z,22.00
2022-08-17T18:18:39.047Z,21.90
2022-08-17T18:21:22.944Z,21.80
2022-08-17T18:23:55.782Z,21.70
2022-08-17T18:26:46.921Z,21.70
2022-08-17T18:29:35.935Z,21.60
2022-08-17T18:32:38.926Z,21.60
2022-08-17T18:35:37.264Z,21.60
2022-08-17T18:38:28.640Z,21.50
2022-08-17T18:41:10.023Z,21.60
2022-08-17T18:43:52.823Z,21.60
2022-08-17T18:46:35.985Z,21.50
2022-08-17T18:49:10.961Z,21.50
2022-08-17T18:51:49.053Z,21.40
2022-08-17T18:54:22.046Z,21.30
2022-08-17T18:56:59.943Z,21.20
2022-08-17T18:59:36.472Z,21.20
2022-08-17T19:02:43.868Z,21.10
2022-08-17T19:05:28.706Z,21.00
2022-08-17T19:08:24.309Z,20.90
2022-08-17T19:13:41.963Z,20.80
2022-08-17T19:16:25.477Z,20.70
2022-08-17T19:19:04.970Z,20.60
2022-08-17T19:21:37.522Z,20.50
2022-08-17T19:24:16.977Z,20.40
2022-08-17T19:26:50.965Z,20.30
2022-08-17T19:29:37.160Z,20.20
2022-08-17T19:32:09.758Z,20.10
2022-08-17T19:34:50.908Z,20.10
2022-08-17T19:37:31.423Z,19.90
2022-08-17T19:40:29.474Z,19.80
2022-08-17T19:43:14.784Z,19.80
2022-08-17T19:46:13.993Z,19.70
2022-08-17T19:48:52.030Z,19.70
2022-08-17T19:51:37.032Z,19.70
2022-08-17T19:54:14.370Z,19.60
2022-08-17T19:56:55.014Z,19.60
2022-08-17T19:59:36.386Z,19.60
2022-08-17T20:02:30.340Z,19.50
2022-08-17T20:05:01.645Z,19.50
2022-08-17T20:07:47.127Z,19.50
2022-08-17T20:10:24.117Z,19.50
2022-08-17T20:13:08.049Z,19.50
2022-08-17T20:15:39.820Z,19.40
2022-08-17T20:18:23.062Z,19.20
2022-08-17T20:20:58.225Z,19.20
2022-08-17T20:23:53.025Z,19.20
2022-08-17T20:26:27.394Z,19.10
2022-08-17T20:29:37.776Z,19.00
2022-08-17T20:32:27.638Z,18.90
2022-08-17T20:35:18.051Z,18.80
2022-08-17T20:37:55.026Z,18.90
2022-08-17T20:40:46.198Z,18.80
2022-08-17T20:43:48.212Z,18.80
2022-08-17T20:46:49.060Z,18.70
2022-08-17T20:49:34.051Z,18.60
2022-08-17T20:52:09.183Z,18.60
2022-08-17T20:54:57.096Z,18.60
2022-08-17T20:57:49.633Z,18.60
2022-08-17T21:00:51.051Z,18.60
2022-08-17T21:03:50.555Z,18.60
2022-08-17T21:06:30.063Z,18.50
2022-08-17T21:09:30.013Z,18.50
2022-08-17T21:12:12.070Z,18.50
2022-08-17T21:15:05.300Z,18.40
2022-08-17T21:17:56.178Z,18.40
2022-08-17T21:20:32.539Z,18.30
2022-08-17T21:23:38.083Z,18.30
2022-08-17T21:26:19.148Z,18.20
2022-08-17T21:29:32.339Z,18.20
2022-08-17T21:32:21.062Z,18.20
2022-08-17T21:35:44.106Z,18.20
2022-08-17T21:38:15.326Z,18.20
2022-08-17T21:40:55.041Z,18.20
2022-08-17T21:43:32.169Z,18.20
2022-08-17T21:46:10.117Z,18.20
2022-08-17T21:48:45.605Z,18.20
2022-08-17T21:51:28.037Z,18.20
2022-08-17T21:53:59.926Z,18.20
2022-08-17T21:56:39.072Z,18.20
2022-08-17T21:59:26.327Z,18.20
2022-08-17T22:02:04.235Z,18.10
2022-08-17T22:04:34.968Z,18.10
2022-08-17T22:07:12.092Z,18.10
2022-08-17T22:09:44.049Z,18.00
2022-08-17T22:12:28.237Z,18.00
2022-08-17T22:15:24.465Z,18.00
2022-08-17T22:17:59.172Z,18.00
2022-08-17T22:20:27.670Z,18.10
2022-08-17T22:23:36.151Z,18.10
2022-08-17T22:26:09.516Z,18.10
2022-08-17T22:28:51.146Z,18.10
2022-08-17T22:31:23.379Z,18.00
2022-08-17T22:34:14.251Z,17.90
2022-08-17T22:36:44.024Z,17.90
2022-08-17T22:39:49.278Z,17.90
2022-08-17T22:42:18.413Z,17.90
2022-08-17T22:44:57.190Z,17.90
2022-08-17T22:47:41.071Z,17.90
2022-08-17T22:50:29.115Z,17.80
2022-08-17T22:53:17.382Z,17.80
2022-08-17T22:56:17.261Z,17.80
2022-08-17T22:59:09.801Z,17.80
2022-08-17T23:01:46.289Z,17.80
2022-08-17T23:04:33.059Z,17.80
2022-08-17T23:07:08.156Z,17.80
2022-08-17T23:09:36.895Z,17.80
2022-08-17T23:12:16.192Z,17.80
2022-08-17T23:14:45.704Z,17.80
2022-08-17T23:17:21.307Z,17.80
2022-08-17T23:19:50.916Z,17.80
2022-08-17T23:22:25.169Z,17.80
2022-08-17T23:24:53.515Z,17.80
2022-08-17T23:27:29.179Z,17.80
2022-08-17T23:29:57.309Z,17.80
2022-08-17T23:32:32.314Z,17.80
2022-08-17T23:35:01.934Z,17.80
2022-08-17T23:37:37.580Z,17.80
2022-08-17T23:40:06.958Z,17.80
2022-08-17T23:42:43.811Z,17.80
2022-08-17T23:45:15.519Z,17.70
2022-08-17T23:47:50.734Z,17.70
2022-08-17T23:50:21.327Z,17.70
2022-08-17T23:52:57.179Z,17.70
2022-08-17T23:55:25.401Z,17.70
2022-08-17T23:58:00.240Z,17.70
